sensor_id;sensor_type;location;lat;lon;timestamp;temperature;humidity
27368;DHT22;14839;48.106;11.618;2022-11-20T05:00:42;5.50;94.60
27368;DHT22;14839;48.106;11.618;2022-11-20T05:03:08;5.40;94.60
27368;DHT22;14839;48.106;11.618;2022-11-20T05:05:34;5.40;94.60
27368;DHT22;14839;48.106;11.618;2022-11-20T05:08:00;5.40;94.60
27368;DHT22;14839;48.106;11.618;2022-11-20T05:10:26;5.40;94.60
27368;DHT22;14839;48.106;11.618;2022-11-20T05:12:52;5.40;94.60
27368;DHT22;14839;48.106;11.618;2022-11-20T05:15:17;5.40;94.60
27368;DHT22;14839;48.106;11.618;2022-11-20T05:17:52;5.40;94.60
27368;DHT22;14839;48.106;11.618;2022-11-20T05:20:19;5.40;94.60
27368;DHT22;14839;48.106;11.618;2022-11-20T05:22:44;5.40;94.60
27368;DHT22;14839;48.106;11.618;2022-11-20T05:25:11;5.50;94.60
27368;DHT22;14839;48.106;11.618;2022-11-20T05:27:37;5.50;94.60
27368;DHT22;14839;48.106;11.618;2022-11-20T05:30:04;5.50;94.60
27368;DHT22;14839;48.106;11.618;2022-11-20T05:32:30;5.50;94.60
27368;DHT22;14839;48.106;11.618;2022-11-20T05:34:55;5.50;94.60
27368;DHT22;14839;48.106;11.618;2022-11-20T05:37:21;5.50;94.60
27368;DHT22;14839;48.106;11.618;2022-11-20T05:39:46;5.50;94.60
27368;DHT22;14839;48.106;11.618;2022-11-20T05:42:12;5.50;94.60
27368;DHT22;14839;48.106;11.618;2022-11-20T05:45:00;5.40;94.60
27368;DHT22;14839;48.106;11.618;2022-11-20T05:47:27;5.40;94.60
27368;DHT22;14839;48.106;11.618;2022-11-20T05:49:53;5.40;94.60
27368;DHT22;14839;48.106;11.618;2022-11-20T05:52:19;5.40;94.60
27368;DHT22;14839;48.106;11.618;2022-11-20T05:54:44;5.40;94.60
27368;DHT22;14839;48.106;11.618;2022-11-20T05:57:10;5.40;94.60
27368;DHT22;14839;48.106;11.618;2022-11-20T05:59:35;5.40;94.60
27368;DHT22;14839;48.106;11.618;2022-11-20T06:02:01;5.40;94.60
27368;DHT22;14839;48.106;11.618;2022-11-20T06:04:27;5.40;94.60
27368;DHT22;14839;48.106;11.618;2022-11-20T06:06:52;5.30;94.60
27368;DHT22;14839;48.106;11.618;2022-11-20T06:09:18;5.30;94.60
27368;DHT22;14839;48.106;11.618;2022-11-20T06:11:43;5.30;94.60
27368;DHT22;14839;48.106;11.618;2022-11-20T06:14:09;5.30;94.60
27368;DHT22;14839;48.106;11.618;2022-11-20T06:16:34;5.40;94.60
27368;DHT22;14839;48.106;11.618;2022-11-20T06:19:00;5.30;94.60
27368;DHT22;14839;48.106;11.618;2022-11-20T06:21:26;5.30;94.60
27368;DHT22;14839;48.106;11.618;2022-11-20T06:23:52;5.20;94.60
27368;DHT22;14839;48.106;11.618;2022-11-20T06:26:24;5.20;94.60
27368;DHT22;14839;48.106;11.618;2022-11-20T06:28:51;5.10;94.60
27368;DHT22;14839;48.106;11.618;2022-11-20T06:31:20;5.00;94.60
27368;DHT22;14839;48.106;11.618;2022-11-20T06:33:46;5.00;94.60
27368;DHT22;14839;48.106;11.618;2022-11-20T06:36:13;4.90;94.60
27368;DHT22;14839;48.106;11.618;2022-11-20T06:38:39;4.80;94.60
27368;DHT22;14839;48.106;11.618;2022-11-20T06:41:07;4.80;94.60
27368;DHT22;14839;48.106;11.618;2022-11-20T06:43:34;4.80;94.60
27368;DHT22;14839;48.106;11.618;2022-11-20T06:45:59;4.70;94.60
27368;DHT22;14839;48.106;11.618;2022-11-20T06:48:28;4.70;94.60
27368;DHT22;14839;48.106;11.618;2022-11-20T06:50:54;4.80;94.60
27368;DHT22;14839;48.106;11.618;2022-11-20T06:53:21;4.80;94.60
27368;DHT22;14839;48.106;11.618;2022-11-20T06:55:49;4.80;94.60
27368;DHT22;14839;48.106;11.618;2022-11-20T06:58:15;4.80;94.60
27368;DHT22;14839;48.106;11.618;2022-11-20T07:00:41;4.80;94.60
27368;DHT22;14839;48.106;11.618;2022-11-20T07:03:08;4.90;94.60
27368;DHT22;14839;48.106;11.618;2022-11-20T07:05:35;5.00;94.60
27368;DHT22;14839;48.106;11.618;2022-11-20T07:08:02;5.10;94.60
27368;DHT22;14839;48.106;11.618;2022-11-20T07:10:28;5.20;94.60
27368;DHT22;14839;48.106;11.618;2022-11-20T07:12:53;5.20;94.60
27368;DHT22;14839;48.106;11.618;2022-11-20T07:15:21;5.30;94.60
27368;DHT22;14839;48.106;11.618;2022-11-20T07:17:47;5.40;94.60
27368;DHT22;14839;48.106;11.618;2022-11-20T07:20:13;5.40;94.60
27368;DHT22;14839;48.106;11.618;2022-11-20T07:22:39;5.50;94.60
27368;DHT22;14839;48.106;11.618;2022-11-20T07:25:05;5.60;94.60
27368;DHT22;14839;48.106;11.618;2022-11-20T07:27:31;5.70;94.60
27368;DHT22;14839;48.106;11.618;2022-11-20T07:29:57;5.70;94.60
27368;DHT22;14839;48.106;11.618;2022-11-20T07:32:23;5.70;94.60
27368;DHT22;14839;48.106;11.618;2022-11-20T07:34:49;5.70;94.60
27368;DHT22;14839;48.106;11.618;2022-11-20T07:37:15;5.80;94.60
27368;DHT22;14839;48.106;11.618;2022-11-20T07:39:41;5.80;94.60
27368;DHT22;14839;48.106;11.618;2022-11-20T07:42:07;5.70;94.60
27368;DHT22;14839;48.106;11.618;2022-11-20T07:44:33;5.80;94.60
27368;DHT22;14839;48.106;11.618;2022-11-20T07:46:59;5.70;94.60
27368;DHT22;14839;48.106;11.618;2022-11-20T07:49:24;5.80;94.60
27368;DHT22;14839;48.106;11.618;2022-11-20T07:51:50;5.80;94.60
27368;DHT22;14839;48.106;11.618;2022-11-20T07:54:17;5.80;94.60
27368;DHT22;14839;48.106;11.618;2022-11-20T07:56:42;5.80;94.60
27368;DHT22;14839;48.106;11.618;2022-11-20T07:59:08;5.90;94.60
27368;DHT22;14839;48.106;11.618;2022-11-20T08:01:33;5.90;94.60
27368;DHT22;14839;48.106;11.618;2022-11-20T08:03:59;5.90;94.60
27368;DHT22;14839;48.106;11.618;2022-11-20T08:06:25;6.00;94.60
27368;DHT22;14839;48.106;11.618;2022-11-20T08:08:51;6.00;94.60
27368;DHT22;14839;48.106;11.618;2022-11-20T08:11:16;6.00;94.60
27368;DHT22;14839;48.106;11.618;2022-11-20T08:14:00;6.10;94.60
27368;DHT22;14839;48.106;11.618;2022-11-20T08:16:45;6.10;94.60
27368;DHT22;14839;48.106;11.618;2022-11-20T08:19:12;6.20;94.60
27368;DHT22;14839;48.106;11.618;2022-11-20T08:21:38;6.20;94.60
27368;DHT22;14839;48.106;11.618;2022-11-20T08:24:05;6.20;94.60
27368;DHT22;14839;48.106;11.618;2022-11-20T08:26:30;6.20;94.60
27368;DHT22;14839;48.106;11.618;2022-11-20T08:28:57;6.20;94.60
27368;DHT22;14839;48.106;11.618;2022-11-20T08:31:24;6.30;94.60
27368;DHT22;14839;48.106;11.618;2022-11-20T08:33:50;6.30;94.60
27368;DHT22;14839;48.106;11.618;2022-11-20T08:36:17;6.30;94.60
27368;DHT22;14839;48.106;11.618;2022-11-20T08:38:47;6.40;94.60
27368;DHT22;14839;48.106;11.618;2022-11-20T08:41:13;6.40;94.60
27368;DHT22;14839;48.106;11.618;2022-11-20T08:43:54;6.40;94.60
27368;DHT22;14839;48.106;11.618;2022-11-20T08:46:21;6.50;94.60
27368;DHT22;14839;48.106;11.618;2022-11-20T08:48:46;6.60;94.60
27368;DHT22;14839;48.106;11.618;2022-11-20T08:51:12;6.60;94.60
27368;DHT22;14839;48.106;11.618;2022-11-20T08:53:38;6.70;94.60
27368;DHT22;14839;48.106;11.618;2022-11-20T08:56:05;6.90;94.60
27368;DHT22;14839;48.106;11.618;2022-11-20T08:58:31;6.90;94.50
27368;DHT22;14839;48.106;11.618;2022-11-20T09:00:56;7.00;94.50
27368;DHT22;14839;48.106;11.618;2022-11-20T09:03:22;7.10;94.60
27368;DHT22;14839;48.106;11.618;2022-11-20T09:05:48;7.10;94.30
27368;DHT22;14839;48.106;11.618;2022-11-20T09:08:13;7.20;94.40
27368;DHT22;14839;48.106;11.618;2022-11-20T09:10:39;7.30;93.80
27368;DHT22;14839;48.106;11.618;2022-11-20T09:13:05;7.20;93.20
27368;DHT22;14839;48.106;11.618;2022-11-20T09:15:30;7.20;92.60
27368;DHT22;14839;48.106;11.618;2022-11-20T09:18:01;7.10;93.40
27368;DHT22;14839;48.106;11.618;2022-11-20T09:20:29;7.10;93.10
27368;DHT22;14839;48.106;11.618;2022-11-20T09:22:55;7.10;93.50
27368;DHT22;14839;48.106;11.618;2022-11-20T09:25:21;7.30;93.30
27368;DHT22;14839;48.106;11.618;2022-11-20T09:27:47;7.30;93.30
27368;DHT22;14839;48.106;11.618;2022-11-20T09:30:14;7.20;92.80
27368;DHT22;14839;48.106;11.618;2022-11-20T09:32:41;7.20;93.00
27368;DHT22;14839;48.106;11.618;2022-11-20T09:35:07;7.30;93.00
27368;DHT22;14839;48.106;11.618;2022-11-20T09:37:33;7.40;92.20
27368;DHT22;14839;48.106;11.618;2022-11-20T09:39:58;7.50;92.00
27368;DHT22;14839;48.106;11.618;2022-11-20T09:45:16;7.60;91.00
27368;DHT22;14839;48.106;11.618;2022-11-20T09:55:39;8.00;89.20
27368;DHT22;14839;48.106;11.618;2022-11-20T09:58:07;8.00;88.90
27368;DHT22;14839;48.106;11.618;2022-11-20T10:00:35;8.10;88.10
27368;DHT22;14839;48.106;11.618;2022-11-20T10:03:06;8.00;88.70
27368;DHT22;14839;48.106;11.618;2022-11-20T10:05:45;7.90;89.00
27368;DHT22;14839;48.106;11.618;2022-11-20T10:08:22;8.20;88.40
27368;DHT22;14839;48.106;11.618;2022-11-20T10:13:40;8.80;84.80
27368;DHT22;14839;48.106;11.618;2022-11-20T10:16:21;8.90;85.40
27368;DHT22;14839;48.106;11.618;2022-11-20T10:24:44;9.20;83.80
27368;DHT22;14839;48.106;11.618;2022-11-20T10:30:13;9.40;83.30
27368;DHT22;14839;48.106;11.618;2022-11-20T10:32:42;9.50;83.50
27368;DHT22;14839;48.106;11.618;2022-11-20T10:37:54;9.60;83.00
27368;DHT22;14839;48.106;11.618;2022-11-20T10:40:36;9.70;82.40
27368;DHT22;14839;48.106;11.618;2022-11-20T10:43:24;9.80;83.60
27368;DHT22;14839;48.106;11.618;2022-11-20T10:46:17;9.80;80.60
27368;DHT22;14839;48.106;11.618;2022-11-20T10:48:44;9.50;81.80
27368;DHT22;14839;48.106;11.618;2022-11-20T10:56:53;9.80;81.80
27368;DHT22;14839;48.106;11.618;2022-11-20T10:59:44;10.00;81.20
27368;DHT22;14839;48.106;11.618;2022-11-20T11:02:16;9.80;79.60
27368;DHT22;14839;48.106;11.618;2022-11-20T11:04:50;9.50;80.30
27368;DHT22;14839;48.106;11.618;2022-11-20T11:09:56;9.00;82.60
27368;DHT22;14839;48.106;11.618;2022-11-20T11:12:24;8.90;83.20
27368;DHT22;14839;48.106;11.618;2022-11-20T11:14:53;8.80;82.90
27368;DHT22;14839;48.106;11.618;2022-11-20T11:17:29;8.90;83.60
27368;DHT22;14839;48.106;11.618;2022-11-20T11:22:50;8.90;83.80
27368;DHT22;14839;48.106;11.618;2022-11-20T11:27:53;8.70;85.40
27368;DHT22;14839;48.106;11.618;2022-11-20T11:30:22;8.60;86.50
27368;DHT22;14839;48.106;11.618;2022-11-20T11:32:48;8.60;87.70
27368;DHT22;14839;48.106;11.618;2022-11-20T11:35:24;8.60;86.50
27368;DHT22;14839;48.106;11.618;2022-11-20T11:37:51;8.60;87.20
27368;DHT22;14839;48.106;11.618;2022-11-20T11:40:19;8.60;87.40
27368;DHT22;14839;48.106;11.618;2022-11-20T11:42:59;8.60;85.70
27368;DHT22;14839;48.106;11.618;2022-11-20T11:45:25;8.60;85.60
27368;DHT22;14839;48.106;11.618;2022-11-20T11:47:53;8.50;85.40
27368;DHT22;14839;48.106;11.618;2022-11-20T11:50:25;8.50;85.40
27368;DHT22;14839;48.106;11.618;2022-11-20T11:55:36;8.70;86.30
27368;DHT22;14839;48.106;11.618;2022-11-20T12:01:32;8.90;84.50
27368;DHT22;14839;48.106;11.618;2022-11-20T12:06:42;9.00;84.40
27368;DHT22;14839;48.106;11.618;2022-11-20T12:09:10;9.20;84.20
27368;DHT22;14839;48.106;11.618;2022-11-20T12:14:35;9.30;82.70
27368;DHT22;14839;48.106;11.618;2022-11-20T12:17:02;9.10;84.10
27368;DHT22;14839;48.106;11.618;2022-11-20T12:19:33;9.00;85.00
27368;DHT22;14839;48.106;11.618;2022-11-20T12:22:05;8.90;86.00
27368;DHT22;14839;48.106;11.618;2022-11-20T12:33:01;8.10;93.00
27368;DHT22;14839;48.106;11.618;2022-11-20T12:35:42;8.00;93.40
27368;DHT22;14839;48.106;11.618;2022-11-20T12:59:10;7.20;94.60
27368;DHT22;14839;48.106;11.618;2022-11-20T13:01:49;7.20;94.60
27368;DHT22;14839;48.106;11.618;2022-11-20T13:07:09;7.20;94.60
27368;DHT22;14839;48.106;11.618;2022-11-20T13:09:48;7.10;94.60
27368;DHT22;14839;48.106;11.618;2022-11-20T13:12:24;7.10;94.60
27368;DHT22;14839;48.106;11.618;2022-11-20T13:15:00;7.10;94.60
27368;DHT22;14839;48.106;11.618;2022-11-20T13:17:38;7.10;94.60
27368;DHT22;14839;48.106;11.618;2022-11-20T13:20:13;7.10;94.60
27368;DHT22;14839;48.106;11.618;2022-11-20T13:22:45;7.10;94.60
27368;DHT22;14839;48.106;11.618;2022-11-20T13:27:55;7.10;94.60
27368;DHT22;14839;48.106;11.618;2022-11-20T13:30:23;6.90;94.60
27368;DHT22;14839;48.106;11.618;2022-11-20T13:32:51;6.90;94.60
27368;DHT22;14839;48.106;11.618;2022-11-20T13:35:33;6.90;94.60
27368;DHT22;14839;48.106;11.618;2022-11-20T13:40:26;6.80;94.60
27368;DHT22;14839;48.106;11.618;2022-11-20T13:45:55;6.70;94.60
27368;DHT22;14839;48.106;11.618;2022-11-20T13:48:23;6.60;94.60
27368;DHT22;14839;48.106;11.618;2022-11-20T13:54:10;6.60;94.60
27368;DHT22;14839;48.106;11.618;2022-11-20T13:59:47;6.60;94.60
27368;DHT22;14839;48.106;11.618;2022-11-20T14:02:17;6.70;94.60
27368;DHT22;14839;48.106;11.618;2022-11-20T14:04:47;6.80;94.60
27368;DHT22;14839;48.106;11.618;2022-11-20T14:07:14;6.80;94.60
27368;DHT22;14839;48.106;11.618;2022-11-20T14:09:52;6.80;94.60
27368;DHT22;14839;48.106;11.618;2022-11-20T14:12:21;6.80;94.60
27368;DHT22;14839;48.106;11.618;2022-11-20T14:14:52;6.80;94.60
27368;DHT22;14839;48.106;11.618;2022-11-20T14:17:23;6.80;94.60
27368;DHT22;14839;48.106;11.618;2022-11-20T14:19:51;6.80;94.60
27368;DHT22;14839;48.106;11.618;2022-11-20T14:22:26;6.80;94.60
27368;DHT22;14839;48.106;11.618;2022-11-20T14:27:44;6.80;94.60
27368;DHT22;14839;48.106;11.618;2022-11-20T14:30:20;6.80;94.60
27368;DHT22;14839;48.106;11.618;2022-11-20T14:32:47;6.90;94.60
27368;DHT22;14839;48.106;11.618;2022-11-20T14:35:27;6.90;94.60
27368;DHT22;14839;48.106;11.618;2022-11-20T14:37:54;6.90;94.60
27368;DHT22;14839;48.106;11.618;2022-11-20T14:40:35;6.90;94.60
27368;DHT22;14839;48.106;11.618;2022-11-20T14:43:04;6.90;94.60
27368;DHT22;14839;48.106;11.618;2022-11-20T14:45:40;6.90;94.60
27368;DHT22;14839;48.106;11.618;2022-11-20T14:48:08;6.90;94.60
27368;DHT22;14839;48.106;11.618;2022-11-20T14:50:35;6.90;94.60
27368;DHT22;14839;48.106;11.618;2022-11-20T14:53:02;6.90;94.60
27368;DHT22;14839;48.106;11.618;2022-11-20T14:55:35;6.90;94.60
27368;DHT22;14839;48.106;11.618;2022-11-20T14:58:05;6.80;94.60
27368;DHT22;14839;48.106;11.618;2022-11-20T15:00:32;6.80;94.60
27368;DHT22;14839;48.106;11.618;2022-11-20T15:02:58;6.80;94.60
27368;DHT22;14839;48.106;11.618;2022-11-20T15:05:43;6.70;94.60
27368;DHT22;14839;48.106;11.618;2022-11-20T15:08:09;6.80;94.60
27368;DHT22;14839;48.106;11.618;2022-11-20T15:10:36;6.70;94.60
27368;DHT22;14839;48.106;11.618;2022-11-20T15:13:05;6.70;94.60
27368;DHT22;14839;48.106;11.618;2022-11-20T15:15:49;6.60;94.60
27368;DHT22;14839;48.106;11.618;2022-11-20T15:18:25;6.60;94.60
27368;DHT22;14839;48.106;11.618;2022-11-20T15:20:52;6.60;94.60
27368;DHT22;14839;48.106;11.618;2022-11-20T15:23:19;6.60;94.60
27368;DHT22;14839;48.106;11.618;2022-11-20T15:25:46;6.50;94.60
27368;DHT22;14839;48.106;11.618;2022-11-20T15:28:35;6.50;94.60
27368;DHT22;14839;48.106;11.618;2022-11-20T15:31:03;6.50;94.60
27368;DHT22;14839;48.106;11.618;2022-11-20T15:33:30;6.50;94.60
27368;DHT22;14839;48.106;11.618;2022-11-20T15:35:55;6.50;94.60
27368;DHT22;14839;48.106;11.618;2022-11-20T15:38:21;6.40;94.60
27368;DHT22;14839;48.106;11.618;2022-11-20T15:40:47;6.40;94.60
27368;DHT22;14839;48.106;11.618;2022-11-20T15:43:12;6.40;94.60
27368;DHT22;14839;48.106;11.618;2022-11-20T15:48:05;6.30;94.60
27368;DHT22;14839;48.106;11.618;2022-11-20T15:50:39;6.30;94.60
27368;DHT22;14839;48.106;11.618;2022-11-20T15:53:09;6.20;94.60
27368;DHT22;14839;48.106;11.618;2022-11-20T15:55:35;6.10;94.60
27368;DHT22;14839;48.106;11.618;2022-11-20T15:58:00;6.00;94.60
27368;DHT22;14839;48.106;11.618;2022-11-20T16:00:26;5.80;94.60
27368;DHT22;14839;48.106;11.618;2022-11-20T16:02:51;5.70;94.60
27368;DHT22;14839;48.106;11.618;2022-11-20T16:05:17;5.70;94.60
27368;DHT22;14839;48.106;11.618;2022-11-20T16:07:43;5.60;94.60
27368;DHT22;14839;48.106;11.618;2022-11-20T16:10:09;5.60;94.60
27368;DHT22;14839;48.106;11.618;2022-11-20T16:12:34;5.50;94.60
27368;DHT22;14839;48.106;11.618;2022-11-20T16:15:18;5.40;94.60
27368;DHT22;14839;48.106;11.618;2022-11-20T16:18:02;5.30;94.60
27368;DHT22;14839;48.106;11.618;2022-11-20T16:20:28;5.20;94.60
27368;DHT22;14839;48.106;11.618;2022-11-20T16:22:54;5.20;94.60
27368;DHT22;14839;48.106;11.618;2022-11-20T16:25:20;5.10;94.60
27368;DHT22;14839;48.106;11.618;2022-11-20T16:27:46;5.10;94.60
27368;DHT22;14839;48.106;11.618;2022-11-20T16:30:12;5.00;94.60
27368;DHT22;14839;48.106;11.618;2022-11-20T16:32:37;5.00;94.60
27368;DHT22;14839;48.106;11.618;2022-11-20T16:35:04;4.90;94.60
27368;DHT22;14839;48.106;11.618;2022-11-20T16:37:30;4.80;94.60
27368;DHT22;14839;48.106;11.618;2022-11-20T16:39:55;4.80;94.60
27368;DHT22;14839;48.106;11.618;2022-11-20T16:42:21;4.70;94.60
27368;DHT22;14839;48.106;11.618;2022-11-20T16:44:47;4.70;94.60
27368;DHT22;14839;48.106;11.618;2022-11-20T16:47:13;4.60;94.60
27368;DHT22;14839;48.106;11.618;2022-11-20T16:49:38;4.60;94.60
27368;DHT22;14839;48.106;11.618;2022-11-20T16:52:04;4.60;94.60
27368;DHT22;14839;48.106;11.618;2022-11-20T16:54:29;4.60;94.60
27368;DHT22;14839;48.106;11.618;2022-11-20T16:56:55;4.50;94.60
27368;DHT22;14839;48.106;11.618;2022-11-20T16:59:21;4.40;94.60
27368;DHT22;14839;48.106;11.618;2022-11-20T17:01:47;4.40;94.60
27368;DHT22;14839;48.106;11.618;2022-11-20T17:04:13;4.30;94.60
27368;DHT22;14839;48.106;11.618;2022-11-20T17:06:41;4.30;94.60
27368;DHT22;14839;48.106;11.618;2022-11-20T17:09:08;4.20;94.60
27368;DHT22;14839;48.106;11.618;2022-11-20T17:11:35;4.10;94.60
27368;DHT22;14839;48.106;11.618;2022-11-20T17:14:00;4.00;94.60
27368;DHT22;14839;48.106;11.618;2022-11-20T17:16:29;4.00;94.60
27368;DHT22;14839;48.106;11.618;2022-11-20T17:18:56;3.90;94.60
27368;DHT22;14839;48.106;11.618;2022-11-20T17:21:22;3.80;94.60
27368;DHT22;14839;48.106;11.618;2022-11-20T17:23:48;3.70;94.60
27368;DHT22;14839;48.106;11.618;2022-11-20T17:26:17;3.60;94.60
27368;DHT22;14839;48.106;11.618;2022-11-20T17:28:43;3.50;94.60
27368;DHT22;14839;48.106;11.618;2022-11-20T17:31:12;3.50;94.60
27368;DHT22;14839;48.106;11.618;2022-11-20T17:33:39;3.40;94.60
27368;DHT22;14839;48.106;11.618;2022-11-20T17:36:07;3.30;94.60
27368;DHT22;14839;48.106;11.618;2022-11-20T17:38:33;3.20;94.60
27368;DHT22;14839;48.106;11.618;2022-11-20T17:43:39;3.10;94.60
27368;DHT22;14839;48.106;11.618;2022-11-20T17:46:06;3.00;94.60
27368;DHT22;14839;48.106;11.618;2022-11-20T17:48:33;3.00;94.60
27368;DHT22;14839;48.106;11.618;2022-11-20T17:51:04;2.90;94.60
27368;DHT22;14839;48.106;11.618;2022-11-20T17:53:38;2.80;94.60
27368;DHT22;14839;48.106;11.618;2022-11-20T17:56:04;2.80;94.60
27368;DHT22;14839;48.106;11.618;2022-11-20T17:58:48;2.70;94.60
27368;DHT22;14839;48.106;11.618;2022-11-20T18:01:15;2.60;94.60
27368;DHT22;14839;48.106;11.618;2022-11-20T18:03:41;2.60;94.60
27368;DHT22;14839;48.106;11.618;2022-11-20T18:08:33;2.60;94.60
27368;DHT22;14839;48.106;11.618;2022-11-20T18:10:59;2.50;94.60
27368;DHT22;14839;48.106;11.618;2022-11-20T18:13:24;2.60;94.60
27368;DHT22;14839;48.106;11.618;2022-11-20T18:16:10;2.50;94.60
27368;DHT22;14839;48.106;11.618;2022-11-20T18:18:36;2.60;94.60
27368;DHT22;14839;48.106;11.618;2022-11-20T18:21:01;2.60;94.60
27368;DHT22;14839;48.106;11.618;2022-11-20T18:23:27;2.60;94.60
27368;DHT22;14839;48.106;11.618;2022-11-20T18:25:59;2.60;94.60
27368;DHT22;14839;48.106;11.618;2022-11-20T18:28:24;2.60;94.60
27368;DHT22;14839;48.106;11.618;2022-11-20T18:30:50;2.60;94.60
27368;DHT22;14839;48.106;11.618;2022-11-20T18:33:15;2.50;94.60
27368;DHT22;14839;48.106;11.618;2022-11-20T18:35:43;2.50;94.60
27368;DHT22;14839;48.106;11.618;2022-11-20T18:38:08;2.60;94.60
27368;DHT22;14839;48.106;11.618;2022-11-20T18:40:35;2.60;94.60
27368;DHT22;14839;48.106;11.618;2022-11-20T18:43:01;2.70;94.60
27368;DHT22;14839;48.106;11.618;2022-11-20T18:45:45;2.70;94.60
27368;DHT22;14839;48.106;11.618;2022-11-20T18:48:10;2.80;94.60
27368;DHT22;14839;48.106;11.618;2022-11-20T18:50:36;2.80;94.60
27368;DHT22;14839;48.106;11.618;2022-11-20T18:53:04;2.80;94.60
27368;DHT22;14839;48.106;11.618;2022-11-20T18:55:29;2.80;94.60
27368;DHT22;14839;48.106;11.618;2022-11-20T18:57:55;2.80;94.60
27368;DHT22;14839;48.106;11.618;2022-11-20T19:00:21;2.80;94.60
27368;DHT22;14839;48.106;11.618;2022-11-20T19:02:47;2.80;94.60
27368;DHT22;14839;48.106;11.618;2022-11-20T19:05:13;2.80;94.60
27368;DHT22;14839;48.106;11.618;2022-11-20T19:07:39;2.80;94.60
27368;DHT22;14839;48.106;11.618;2022-11-20T19:10:05;2.70;94.60
27368;DHT22;14839;48.106;11.618;2022-11-20T19:12:31;2.70;94.60
27368;DHT22;14839;48.106;11.618;2022-11-20T19:14:57;2.60;94.60
27368;DHT22;14839;48.106;11.618;2022-11-20T19:17:22;2.60;94.60
27368;DHT22;14839;48.106;11.618;2022-11-20T19:19:48;2.60;94.60
27368;DHT22;14839;48.106;11.618;2022-11-20T19:22:15;2.60;94.60
27368;DHT22;14839;48.106;11.618;2022-11-20T19:24:41;2.60;94.60
27368;DHT22;14839;48.106;11.618;2022-11-20T19:27:06;2.50;94.60
27368;DHT22;14839;48.106;11.618;2022-11-20T19:29:32;2.50;94.60
27368;DHT22;14839;48.106;11.618;2022-11-20T19:31:57;2.50;94.60
27368;DHT22;14839;48.106;11.618;2022-11-20T19:34:23;2.50;94.60
27368;DHT22;14839;48.106;11.618;2022-11-20T19:36:50;2.40;94.60
27368;DHT22;14839;48.106;11.618;2022-11-20T19:39:16;2.40;94.60
27368;DHT22;14839;48.106;11.618;2022-11-20T19:41:41;2.50;94.60
27368;DHT22;14839;48.106;11.618;2022-11-20T19:44:10;2.50;94.60
27368;DHT22;14839;48.106;11.618;2022-11-20T19:46:37;2.50;94.60
27368;DHT22;14839;48.106;11.618;2022-11-20T19:49:03;2.50;94.60
27368;DHT22;14839;48.106;11.618;2022-11-20T19:51:32;2.60;94.60
27368;DHT22;14839;48.106;11.618;2022-11-20T19:53:59;2.60;94.60
27368;DHT22;14839;48.106;11.618;2022-11-20T19:56:26;2.60;94.60
27368;DHT22;14839;48.106;11.618;2022-11-20T19:58:53;2.70;94.60
27368;DHT22;14839;48.106;11.618;2022-11-20T20:01:21;2.70;94.60
27368;DHT22;14839;48.106;11.618;2022-11-20T20:03:48;2.70;94.60
27368;DHT22;14839;48.106;11.618;2022-11-20T20:06:16;2.80;94.60
27368;DHT22;14839;48.106;11.618;2022-11-20T20:08:42;2.80;94.60
27368;DHT22;14839;48.106;11.618;2022-11-20T20:11:19;2.80;94.60
27368;DHT22;14839;48.106;11.618;2022-11-20T20:13:45;2.80;94.60
27368;DHT22;14839;48.106;11.618;2022-11-20T20:16:13;2.80;94.60
27368;DHT22;14839;48.106;11.618;2022-11-20T20:18:39;2.80;94.60
27368;DHT22;14839;48.106;11.618;2022-11-20T20:21:07;2.80;94.60
27368;DHT22;14839;48.106;11.618;2022-11-20T20:23:33;2.80;94.60
27368;DHT22;14839;48.106;11.618;2022-11-20T20:26:03;2.80;94.60
27368;DHT22;14839;48.106;11.618;2022-11-20T20:28:29;2.80;94.60
27368;DHT22;14839;48.106;11.618;2022-11-20T20:30:55;2.90;94.60
27368;DHT22;14839;48.106;11.618;2022-11-20T20:33:21;2.90;94.60
27368;DHT22;14839;48.106;11.618;2022-11-20T20:35:47;2.90;94.60
27368;DHT22;14839;48.106;11.618;2022-11-20T20:38:13;3.00;94.60
27368;DHT22;14839;48.106;11.618;2022-11-20T20:40:38;3.00;94.60
27368;DHT22;14839;48.106;11.618;2022-11-20T20:43:10;3.10;94.60
27368;DHT22;14839;48.106;11.618;2022-11-20T20:45:35;3.10;94.60
27368;DHT22;14839;48.106;11.618;2022-11-20T20:48:01;3.20;94.60
27368;DHT22;14839;48.106;11.618;2022-11-20T20:50:26;3.20;94.60
27368;DHT22;14839;48.106;11.618;2022-11-20T20:52:52;3.20;94.60
27368;DHT22;14839;48.106;11.618;2022-11-20T20:55:18;3.20;94.60
27368;DHT22;14839;48.106;11.618;2022-11-20T20:57:43;3.20;94.60
27368;DHT22;14839;48.106;11.618;2022-11-20T21:00:09;3.20;94.60
27368;DHT22;14839;48.106;11.618;2022-11-20T21:02:35;3.20;94.60
27368;DHT22;14839;48.106;11.618;2022-11-20T21:05:01;3.20;94.60
27368;DHT22;14839;48.106;11.618;2022-11-20T21:07:28;3.20;94.60
27368;DHT22;14839;48.106;11.618;2022-11-20T21:09:53;3.20;94.60
27368;DHT22;14839;48.106;11.618;2022-11-20T21:12:19;3.20;94.60
27368;DHT22;14839;48.106;11.618;2022-11-20T21:14:44;3.20;94.60
27368;DHT22;14839;48.106;11.618;2022-11-20T21:17:10;3.20;94.60
27368;DHT22;14839;48.106;11.618;2022-11-20T21:19:36;3.20;94.60
27368;DHT22;14839;48.106;11.618;2022-11-20T21:22:01;3.30;94.60
27368;DHT22;14839;48.106;11.618;2022-11-20T21:26:55;3.40;94.60
27368;DHT22;14839;48.106;11.618;2022-11-20T21:29:21;3.40;94.60
27368;DHT22;14839;48.106;11.618;2022-11-20T21:31:47;3.40;94.60
27368;DHT22;14839;48.106;11.618;2022-11-20T21:34:14;3.40;94.60
27368;DHT22;14839;48.106;11.618;2022-11-20T21:36:40;3.50;94.60
27368;DHT22;14839;48.106;11.618;2022-11-20T21:39:06;3.60;94.60
27368;DHT22;14839;48.106;11.618;2022-11-20T21:41:32;3.70;94.60
27368;DHT22;14839;48.106;11.618;2022-11-20T21:43:59;3.70;94.60
27368;DHT22;14839;48.106;11.618;2022-11-20T21:46:25;3.90;94.60
27368;DHT22;14839;48.106;11.618;2022-11-20T21:48:51;4.10;94.60
27368;DHT22;14839;48.106;11.618;2022-11-20T21:51:23;4.30;94.60
27368;DHT22;14839;48.106;11.618;2022-11-20T21:53:50;4.50;94.60
27368;DHT22;14839;48.106;11.618;2022-11-20T21:56:17;4.80;94.60
27368;DHT22;14839;48.106;11.618;2022-11-20T21:58:45;5.00;94.60
27368;DHT22;14839;48.106;11.618;2022-11-20T22:01:12;5.00;94.60
27368;DHT22;14839;48.106;11.618;2022-11-20T22:03:38;5.00;94.60
27368;DHT22;14839;48.106;11.618;2022-11-20T22:06:05;5.00;94.60
27368;DHT22;14839;48.106;11.618;2022-11-20T22:08:33;4.90;94.60
27368;DHT22;14839;48.106;11.618;2022-11-20T22:11:02;4.90;94.60
27368;DHT22;14839;48.106;11.618;2022-11-20T22:13:29;4.80;94.60
27368;DHT22;14839;48.106;11.618;2022-11-20T22:16:13;4.70;94.60
27368;DHT22;14839;48.106;11.618;2022-11-20T22:18:48;4.60;94.60
27368;DHT22;14839;48.106;11.618;2022-11-20T22:21:15;4.60;94.60
27368;DHT22;14839;48.106;11.618;2022-11-20T22:23:41;4.60;94.60
27368;DHT22;14839;48.106;11.618;2022-11-20T22:26:11;4.50;94.60